createdAt,value
2024-01-16T00:00:44.602Z,118.08
2024-01-16T00:01:45.506Z,120.73
2024-01-16T00:02:44.701Z,119.70
2024-01-16T00:03:44.630Z,121.50
2024-01-16T00:04:44.622Z,122.58
2024-01-16T00:05:44.736Z,121.88
2024-01-16T00:06:47.383Z,119.90
2024-01-16T00:07:44.632Z,122.47
2024-01-16T00:08:45.612Z,120.19
2024-01-16T00:09:44.608Z,123.30
2024-01-16T00:10:44.664Z,122.64
2024-01-16T00:11:44.796Z,124.15
2024-01-16T00:12:44.661Z,124.77
2024-01-16T00:13:45.542Z,119.52
2024-01-16T00:14:44.847Z,121.66
2024-01-16T00:15:44.642Z,123.55
2024-01-16T00:16:44.676Z,122.61
2024-01-16T00:17:44.831Z,123.80
2024-01-16T00:18:44.713Z,120.71
2024-01-16T00:19:44.652Z,121.47
2024-01-16T00:20:44.814Z,123.36
2024-01-16T00:21:44.678Z,120.99
2024-01-16T00:22:44.632Z,122.75
2024-01-16T00:23:45.659Z,121.82
2024-01-16T00:24:44.632Z,122.39
2024-01-16T00:25:44.702Z,117.81
2024-01-16T00:26:44.820Z,121.85
2024-01-16T00:27:44.666Z,121.39
2024-01-16T00:28:44.683Z,120.00
2024-01-16T00:29:44.752Z,120.26
2024-01-16T00:30:44.682Z,120.26
2024-01-16T00:32:44.859Z,124.27
2024-01-16T00:33:44.765Z,124.36
2024-01-16T00:34:44.672Z,123.07
2024-01-16T00:35:44.789Z,121.11
2024-01-16T00:36:44.676Z,120.53
2024-01-16T00:37:44.669Z,120.88
2024-01-16T00:38:44.718Z,121.52
2024-01-16T00:39:44.677Z,121.35
2024-01-16T00:40:44.694Z,119.72
2024-01-16T00:41:44.779Z,122.33
2024-01-16T00:42:44.712Z,121.81
2024-01-16T00:43:45.017Z,122.49
2024-01-16T00:44:44.745Z,121.13
2024-01-16T00:45:44.682Z,121.01
2024-01-16T00:46:44.686Z,120.63
2024-01-16T00:47:44.772Z,119.90
2024-01-16T00:48:44.841Z,123.40
2024-01-16T00:49:44.730Z,122.80
2024-01-16T00:50:44.815Z,119.30
2024-01-16T00:51:44.741Z,121.61
2024-01-16T00:52:44.688Z,121.54
2024-01-16T00:53:44.935Z,119.78
2024-01-16T00:54:44.765Z,120.00
2024-01-16T00:55:44.697Z,122.25
2024-01-16T00:56:44.804Z,119.25
2024-01-16T00:57:44.711Z,120.05
2024-01-16T00:58:44.724Z,121.42
2024-01-16T00:59:44.735Z,118.29
2024-01-16T01:00:44.756Z,120.15
2024-01-16T01:01:44.737Z,121.35
2024-01-16T01:02:44.775Z,121.73
2024-01-16T01:03:44.813Z,121.67
2024-01-16T01:04:44.782Z,121.81
2024-01-16T01:05:44.994Z,121.45
2024-01-16T01:06:44.735Z,120.24
2024-01-16T01:07:44.727Z,119.15
2024-01-16T01:08:44.839Z,121.86
2024-01-16T01:09:44.796Z,122.79
2024-01-16T01:10:44.819Z,123.08
2024-01-16T01:11:44.883Z,120.17
2024-01-16T01:12:44.736Z,119.73
2024-01-16T01:13:44.797Z,121.49
2024-01-16T01:14:44.830Z,121.26
2024-01-16T01:15:44.745Z,119.93
2024-01-16T01:16:44.758Z,122.96
2024-01-16T01:17:44.847Z,123.55
2024-01-16T01:18:44.895Z,118.73
2024-01-16T01:19:44.726Z,119.33
2024-01-16T01:20:44.955Z,120.55
2024-01-16T01:21:44.745Z,121.73
2024-01-16T01:22:44.748Z,120.41
2024-01-16T01:23:44.833Z,120.87
2024-01-16T01:24:44.762Z,121.32
2024-01-16T01:25:44.765Z,123.81
2024-01-16T01:26:44.863Z,121.25
2024-01-16T01:27:44.767Z,122.38
2024-01-16T01:28:44.785Z,120.33
2024-01-16T01:29:44.889Z,121.31
2024-01-16T01:30:44.805Z,121.82
2024-01-16T01:31:44.795Z,119.66
2024-01-16T01:32:44.858Z,123.47
2024-01-16T01:33:44.829Z,123.61
2024-01-16T01:34:44.764Z,121.51
2024-01-16T01:35:44.843Z,122.29
2024-01-16T01:36:44.982Z,123.04
2024-01-16T01:37:44.784Z,119.67
2024-01-16T01:38:44.869Z,120.44
2024-01-16T01:39:44.798Z,120.75
2024-01-16T01:40:44.772Z,122.46
2024-01-16T01:41:44.797Z,123.74
2024-01-16T01:42:44.766Z,120.21
2024-01-16T01:43:45.092Z,120.65
2024-01-16T01:44:44.915Z,119.17
2024-01-16T01:45:44.745Z,122.26
2024-01-16T01:46:44.794Z,123.21
2024-01-16T01:47:44.848Z,119.11
2024-01-16T01:48:44.832Z,122.57
2024-01-16T01:49:44.774Z,118.99
2024-01-16T01:50:44.880Z,120.20
2024-01-16T01:51:45.548Z,118.74
2024-01-16T01:52:44.804Z,119.70
2024-01-16T01:53:44.907Z,121.98
2024-01-16T01:54:44.771Z,121.81
2024-01-16T01:55:44.789Z,121.00
2024-01-16T01:56:44.891Z,121.79
2024-01-16T01:57:44.853Z,121.94
2024-01-16T01:58:45.044Z,117.84
2024-01-16T01:59:44.859Z,120.99
2024-01-16T02:00:44.813Z,118.37
2024-01-16T02:01:44.795Z,120.12
2024-01-16T02:02:44.883Z,119.73
2024-01-16T02:03:44.852Z,122.36
2024-01-16T02:04:44.818Z,120.64
2024-01-16T02:05:44.893Z,118.43
2024-01-16T02:06:44.793Z,120.56
2024-01-16T02:07:44.802Z,123.09
2024-01-16T02:08:44.872Z,121.64
2024-01-16T02:09:44.818Z,120.56
2024-01-16T02:10:44.784Z,120.94
2024-01-16T02:11:44.886Z,124.01
2024-01-16T02:12:44.838Z,123.62
2024-01-16T02:13:44.808Z,121.72
2024-01-16T02:14:44.854Z,122.99
2024-01-16T02:15:44.788Z,120.72
2024-01-16T02:16:44.804Z,119.85
2024-01-16T02:17:44.878Z,120.13
2024-01-16T02:18:44.886Z,118.62
2024-01-16T02:19:44.833Z,120.56
2024-01-16T02:20:44.914Z,119.49
2024-01-16T02:21:45.862Z,121.49
2024-01-16T02:22:44.809Z,120.57
2024-01-16T02:23:44.947Z,121.47
2024-01-16T02:24:44.843Z,121.91
2024-01-16T02:25:44.854Z,119.96
2024-01-16T02:26:44.914Z,119.75
2024-01-16T02:27:44.791Z,121.14
2024-01-16T02:28:44.845Z,119.62
2024-01-16T02:29:45.128Z,125.62
2024-01-16T02:30:44.934Z,123.11
2024-01-16T02:31:44.818Z,120.67
2024-01-16T02:32:44.905Z,119.87
2024-01-16T02:33:45.139Z,121.00
2024-01-16T02:34:44.904Z,120.73
2024-01-16T02:35:44.906Z,117.77
2024-01-16T02:36:44.840Z,121.64
2024-01-16T02:37:44.839Z,122.79
2024-01-16T02:38:46.646Z,121.68
2024-01-16T02:39:44.848Z,121.72
2024-01-16T02:40:44.830Z,121.92
2024-01-16T02:41:45.010Z,122.01
2024-01-16T02:42:44.861Z,120.84
2024-01-16T02:43:44.865Z,120.60
2024-01-16T02:44:44.971Z,119.68
2024-01-16T02:45:44.859Z,118.68
2024-01-16T02:46:44.837Z,119.98
2024-01-16T02:47:44.945Z,119.63
2024-01-16T02:48:44.982Z,121.68
2024-01-16T02:49:44.906Z,119.12
2024-01-16T02:50:45.004Z,119.29
2024-01-16T02:51:44.899Z,118.75
2024-01-16T02:52:44.873Z,119.40
2024-01-16T02:53:44.927Z,117.08
2024-01-16T02:54:44.862Z,119.74
2024-01-16T02:55:44.870Z,122.27
2024-01-16T02:56:44.925Z,119.44
2024-01-16T02:57:44.911Z,117.88
2024-01-16T02:58:44.896Z,120.63
2024-01-16T02:59:45.006Z,120.00
2024-01-16T03:00:44.951Z,117.10
2024-01-16T03:01:44.904Z,119.01
2024-01-16T03:02:44.970Z,120.01
2024-01-16T03:03:44.959Z,117.97
2024-01-16T03:04:44.903Z,120.45
2024-01-16T03:05:44.961Z,119.29
2024-01-16T03:06:44.958Z,120.81
2024-01-16T03:07:44.894Z,118.29
2024-01-16T03:08:45.101Z,122.62
2024-01-16T03:09:44.931Z,117.96
2024-01-16T03:10:44.947Z,120.32
2024-01-16T03:11:45.010Z,119.07
2024-01-16T03:12:44.929Z,118.10
2024-01-16T03:13:45.062Z,117.56
2024-01-16T03:14:45.087Z,118.71
2024-01-16T03:15:44.988Z,118.39
2024-01-16T03:16:44.982Z,116.61
2024-01-16T03:17:45.120Z,120.15
2024-01-16T03:18:45.049Z,117.54
2024-01-16T03:19:45.044Z,117.37
2024-01-16T03:20:45.051Z,119.08
2024-01-16T03:21:44.986Z,117.29
2024-01-16T03:22:45.021Z,117.33
2024-01-16T03:23:45.079Z,118.93
2024-01-16T03:24:45.041Z,117.05
2024-01-16T03:25:45.049Z,116.84
2024-01-16T03:26:45.059Z,116.39
2024-01-16T03:27:45.069Z,117.41
2024-01-16T03:28:45.170Z,118.52
2024-01-16T03:29:45.142Z,116.05
2024-01-16T03:30:45.105Z,116.76
2024-01-16T03:31:45.056Z,116.03
2024-01-16T03:32:45.192Z,119.02
2024-01-16T03:33:45.255Z,116.78
2024-01-16T03:34:45.113Z,118.94
2024-01-16T03:35:45.116Z,116.02
2024-01-16T03:36:45.124Z,115.63
2024-01-16T03:37:45.098Z,116.38
2024-01-16T03:38:45.216Z,116.13
2024-01-16T03:39:45.147Z,116.81
2024-01-16T03:40:45.120Z,115.18
2024-01-16T03:41:45.320Z,116.65
2024-01-16T03:42:45.177Z,118.71
2024-01-16T03:43:45.164Z,119.11
2024-01-16T03:44:45.261Z,117.43
2024-01-16T03:45:45.193Z,116.58
2024-01-16T03:46:45.243Z,116.91
2024-01-16T03:47:45.245Z,116.78
2024-01-16T03:48:45.317Z,116.20
2024-01-16T03:49:45.269Z,115.85
2024-01-16T03:50:45.468Z,115.14
2024-01-16T03:51:45.281Z,115.19
2024-01-16T03:52:45.287Z,115.38
2024-01-16T03:53:45.341Z,119.45
2024-01-16T03:54:45.298Z,115.41
2024-01-16T03:55:45.299Z,116.36
2024-01-16T03:56:45.367Z,117.07
2024-01-16T03:57:45.276Z,116.56
2024-01-16T03:58:45.321Z,114.66
2024-01-16T03:59:45.398Z,115.57
2024-01-16T04:00:45.370Z,116.97
2024-01-16T04:01:45.361Z,116.11
2024-01-16T04:02:45.475Z,116.29
2024-01-16T04:03:45.606Z,118.04
2024-01-16T04:04:45.345Z,115.32
2024-01-16T04:05:45.448Z,114.89
2024-01-16T04:06:45.373Z,115.82
2024-01-16T04:07:45.401Z,116.90
2024-01-16T04:08:45.440Z,116.85
2024-01-16T04:09:45.349Z,114.50
2024-01-16T04:10:45.399Z,114.55
2024-01-16T04:11:45.496Z,114.57
2024-01-16T04:12:45.414Z,117.25
2024-01-16T04:13:45.631Z,117.82
2024-01-16T04:14:45.463Z,117.62
2024-01-16T04:15:45.434Z,114.32
2024-01-16T04:16:45.442Z,115.38
2024-01-16T04:17:45.492Z,115.40
2024-01-16T04:18:45.641Z,116.80
2024-01-16T04:19:45.461Z,113.97
2024-01-16T04:20:45.580Z,114.53
2024-01-16T04:21:45.472Z,114.70
2024-01-16T04:22:45.477Z,114.14
2024-01-16T04:23:45.626Z,115.10
2024-01-16T04:24:45.489Z,114.76
2024-01-16T04:25:45.557Z,113.72
2024-01-16T04:26:45.659Z,112.58
2024-01-16T04:27:45.567Z,114.70
2024-01-16T04:28:45.596Z,116.24
2024-01-16T04:29:45.612Z,113.68
2024-01-16T04:30:45.658Z,113.57
2024-01-16T04:31:45.595Z,115.59
2024-01-16T04:32:45.713Z,113.07
2024-01-16T04:33:45.942Z,116.62
2024-01-16T04:34:45.613Z,114.29
2024-01-16T04:35:45.648Z,111.85
2024-01-16T04:36:45.647Z,114.05
2024-01-16T04:37:45.629Z,113.08
2024-01-16T04:38:52.920Z,50.00
2024-01-16T04:39:52.936Z,50.00
2024-01-16T04:40:52.884Z,50.00
2024-01-16T04:41:52.913Z,50.00
2024-01-16T04:42:52.905Z,50.00
2024-01-16T04:43:52.899Z,50.31
2024-01-16T04:44:52.937Z,51.09
2024-01-16T04:45:52.911Z,50.36
2024-01-16T04:46:52.940Z,50.00
2024-01-16T04:47:53.039Z,50.00
2024-01-16T04:48:53.079Z,51.91
2024-01-16T04:49:52.949Z,51.71
2024-01-16T04:50:53.028Z,51.09
2024-01-16T04:51:52.915Z,50.08
2024-01-16T04:52:54.504Z,52.49
2024-01-16T04:53:52.949Z,53.09
2024-01-16T04:54:52.985Z,53.26
2024-01-16T04:55:52.932Z,53.49
2024-01-16T04:56:53.013Z,53.72
2024-01-16T04:57:52.951Z,53.01
2024-01-16T04:58:52.949Z,51.37
2024-01-16T04:59:53.151Z,52.03
2024-01-16T05:00:52.966Z,54.11
2024-01-16T05:01:52.962Z,53.29
2024-01-16T05:02:53.070Z,52.54
2024-01-16T05:03:53.020Z,52.81
2024-01-16T05:04:52.951Z,52.05
2024-01-16T05:05:53.076Z,52.37
2024-01-16T05:06:52.967Z,52.23
2024-01-16T05:07:53.052Z,54.13
2024-01-16T05:08:53.011Z,52.24
2024-01-16T05:09:52.958Z,50.48
2024-01-16T05:10:53.026Z,52.49
2024-01-16T05:11:53.023Z,52.06
2024-01-16T05:12:52.972Z,51.73
2024-01-16T05:13:52.945Z,52.16
2024-01-16T05:14:53.032Z,53.32
2024-01-16T05:15:53.024Z,50.61
2024-01-16T05:16:52.972Z,55.24
2024-01-16T05:17:53.052Z,56.11
2024-01-16T05:18:52.997Z,51.19
2024-01-16T05:19:52.978Z,53.86
2024-01-16T05:20:52.992Z,52.60
2024-01-16T05:21:52.970Z,53.84
2024-01-16T05:22:52.965Z,55.07
2024-01-16T05:23:53.067Z,51.87
2024-01-16T05:24:52.978Z,53.84
2024-01-16T05:25:53.022Z,52.66
2024-01-16T05:26:53.061Z,53.63
2024-01-16T05:27:53.031Z,53.81
2024-01-16T05:28:52.975Z,53.65
2024-01-16T05:29:53.106Z,50.85
2024-01-16T05:30:53.148Z,52.69
2024-01-16T05:31:53.039Z,53.16
2024-01-16T05:32:53.137Z,52.43
2024-01-16T05:33:53.114Z,50.64
2024-01-16T05:34:53.025Z,55.42
2024-01-16T05:35:53.092Z,58.40
2024-01-16T05:36:53.046Z,57.99
2024-01-16T05:37:53.029Z,61.10
2024-01-16T05:38:53.058Z,61.48
2024-01-16T05:39:53.037Z,60.56
2024-01-16T05:40:53.013Z,60.48
2024-01-16T05:41:53.154Z,65.90
2024-01-16T05:42:53.046Z,64.59
2024-01-16T05:43:53.120Z,64.47
2024-01-16T05:44:53.575Z,63.72
2024-01-16T05:45:53.053Z,64.62
2024-01-16T05:46:53.054Z,65.86
2024-01-16T05:47:53.079Z,64.38
2024-01-16T05:48:53.156Z,67.19
2024-01-16T05:49:53.141Z,65.92
2024-01-16T05:50:53.118Z,65.33
2024-01-16T05:51:53.076Z,57.93
2024-01-16T05:52:53.046Z,52.14
2024-01-16T05:53:53.163Z,50.00
2024-01-16T05:54:53.149Z,50.00
2024-01-16T05:55:53.174Z,51.37
2024-01-16T05:56:53.308Z,49.58
2024-01-16T05:57:53.250Z,51.74
2024-01-16T05:58:53.445Z,50.00
2024-01-16T05:59:53.387Z,51.82
2024-01-16T06:00:53.448Z,50.20
2024-01-16T06:01:53.444Z,50.00
2024-01-16T06:02:53.479Z,50.92
2024-01-16T06:03:53.538Z,49.08
2024-01-16T06:04:53.614Z,53.09
2024-01-16T06:05:53.855Z,50.00
2024-01-16T06:06:53.848Z,50.54
2024-01-16T06:07:53.785Z,52.26
2024-01-16T06:08:53.909Z,50.65
2024-01-16T06:09:53.991Z,52.29
2024-01-16T06:10:54.060Z,51.49
2024-01-16T06:11:54.173Z,52.31
2024-01-16T06:12:54.149Z,51.96
2024-01-16T06:13:54.224Z,51.96
2024-01-16T06:14:54.439Z,50.41
2024-01-16T06:15:54.364Z,51.53
2024-01-16T06:16:54.386Z,52.34
2024-01-16T06:17:54.581Z,51.98
2024-01-16T06:18:54.637Z,51.73
2024-01-16T06:19:54.608Z,50.45
2024-01-16T06:20:54.805Z,53.39
2024-01-16T06:21:54.725Z,50.47
2024-01-16T06:22:54.780Z,50.18
2024-01-16T06:23:54.909Z,53.34
2024-01-16T06:24:55.069Z,50.58
2024-01-16T06:25:54.953Z,50.17
2024-01-16T06:26:55.106Z,53.33
2024-01-16T06:27:55.120Z,54.48
2024-01-16T06:28:55.251Z,51.54
2024-01-16T06:29:55.263Z,52.97
2024-01-16T06:30:55.354Z,51.68
2024-01-16T06:31:55.421Z,52.21
2024-01-16T06:32:55.570Z,51.15
2024-01-16T06:33:55.687Z,52.75
2024-01-16T06:34:55.579Z,54.26
2024-01-16T06:35:55.678Z,51.52
2024-01-16T06:36:55.701Z,50.00
2024-01-16T06:37:55.759Z,54.23
2024-01-16T06:38:55.898Z,50.00
2024-01-16T06:39:55.883Z,51.37
2024-01-16T06:40:55.988Z,52.93
2024-01-16T06:41:56.073Z,52.81
2024-01-16T06:42:56.193Z,52.39
2024-01-16T06:43:56.242Z,52.76
2024-01-16T06:44:56.542Z,54.20
2024-01-16T06:45:56.334Z,53.48
2024-01-16T06:46:56.380Z,53.69
2024-01-16T06:47:56.598Z,54.50
2024-01-16T06:48:56.556Z,51.22
2024-01-16T06:49:56.605Z,51.75
2024-01-16T06:50:56.703Z,50.63
2024-01-16T06:51:56.708Z,51.08
2024-01-16T06:52:56.786Z,53.60
2024-01-16T06:53:57.351Z,51.27
2024-01-16T06:54:56.908Z,51.53
2024-01-16T06:55:57.037Z,54.03
2024-01-16T06:56:57.069Z,55.20
2024-01-16T06:57:57.132Z,55.21
2024-01-16T06:58:57.551Z,59.99
2024-01-16T06:59:57.337Z,57.26
2024-01-16T07:00:57.419Z,57.76
2024-01-16T07:01:57.398Z,58.52
2024-01-16T07:02:57.554Z,59.20
2024-01-16T07:03:57.562Z,61.38
2024-01-16T07:05:00.457Z,61.17
2024-01-16T07:05:57.716Z,61.24
2024-01-16T07:06:57.591Z,59.52
2024-01-16T07:07:57.559Z,63.72
2024-01-16T07:08:57.667Z,64.05
2024-01-16T07:09:58.052Z,64.59
2024-01-16T07:10:57.631Z,64.57
2024-01-16T07:11:57.601Z,66.40
2024-01-16T07:12:57.769Z,67.17
2024-01-16T07:13:57.595Z,64.29
2024-01-16T07:14:57.582Z,65.42
2024-01-16T07:15:57.583Z,65.49
2024-01-16T07:16:57.577Z,68.74
2024-01-16T07:17:57.721Z,68.69
2024-01-16T07:18:57.653Z,68.54
2024-01-16T07:19:57.587Z,70.48
2024-01-16T07:20:57.816Z,70.56
2024-01-16T07:21:57.581Z,68.42
2024-01-16T07:22:57.621Z,75.33
2024-01-16T07:23:57.641Z,70.25
2024-01-16T07:24:57.611Z,72.34
2024-01-16T07:25:57.613Z,73.03
2024-01-16T07:26:57.656Z,71.82
2024-01-16T07:27:57.577Z,71.97
2024-01-16T07:28:57.627Z,76.09
2024-01-16T07:29:57.648Z,76.24
2024-01-16T07:30:57.706Z,75.51
2024-01-16T07:31:57.609Z,73.96
2024-01-16T07:32:57.740Z,76.37
2024-01-16T07:33:57.693Z,73.74
2024-01-16T07:34:57.612Z,76.15
2024-01-16T07:35:57.652Z,76.59
2024-01-16T07:36:57.640Z,77.08
2024-01-16T07:37:57.614Z,78.49
2024-01-16T07:38:57.655Z,77.38
2024-01-16T07:39:58.046Z,79.17
2024-01-16T07:40:57.602Z,79.61
2024-01-16T07:41:57.700Z,80.19
2024-01-16T07:42:57.722Z,80.73
2024-01-16T07:43:57.782Z,80.06
2024-01-16T07:44:57.886Z,80.59
2024-01-16T07:45:57.900Z,80.27
2024-01-16T07:46:57.910Z,81.41
2024-01-16T07:47:58.083Z,80.93
2024-01-16T07:48:58.080Z,81.81
2024-01-16T07:49:58.131Z,80.41
2024-01-16T07:50:58.228Z,78.29
2024-01-16T07:51:58.223Z,74.01
2024-01-16T07:52:58.328Z,72.38
2024-01-16T07:53:58.380Z,64.12
2024-01-16T07:54:58.415Z,61.49
2024-01-16T07:55:58.526Z,62.34
2024-01-16T07:56:58.617Z,65.45
2024-01-16T07:57:58.542Z,59.95
2024-01-16T07:58:58.582Z,59.74
2024-01-16T07:59:58.667Z,64.02
2024-01-16T08:00:58.684Z,71.59
2024-01-16T08:01:58.715Z,76.26
2024-01-16T08:02:58.784Z,78.64
2024-01-16T08:03:58.825Z,80.78
2024-01-16T08:04:58.748Z,84.41
2024-01-16T08:05:58.926Z,76.47
2024-01-16T08:06:58.899Z,80.65
2024-01-16T08:07:58.821Z,73.03
2024-01-16T08:08:58.855Z,77.80
2024-01-16T08:09:58.827Z,78.66
2024-01-16T08:10:58.847Z,85.19
2024-01-16T08:11:58.918Z,85.39
2024-01-16T08:12:58.871Z,85.28
2024-01-16T08:13:58.878Z,85.91
2024-01-16T08:14:59.178Z,87.33
2024-01-16T08:15:58.934Z,80.12
2024-01-16T08:16:58.997Z,78.32
2024-01-16T08:17:59.184Z,73.92
2024-01-16T08:18:59.180Z,73.79
2024-01-16T08:19:59.156Z,78.44
2024-01-16T08:20:59.279Z,74.64
2024-01-16T08:21:59.238Z,73.16
2024-01-16T08:22:59.363Z,75.76
2024-01-16T08:23:59.399Z,77.65
2024-01-16T08:24:59.476Z,82.30
2024-01-16T08:25:59.580Z,83.43
2024-01-16T08:26:59.629Z,86.09
2024-01-16T08:27:59.638Z,89.11
2024-01-16T08:28:59.706Z,90.60
2024-01-16T08:29:59.774Z,90.99
2024-01-16T08:31:00.024Z,93.99
2024-01-16T08:31:59.891Z,95.55
2024-01-16T08:33:00.119Z,93.63
2024-01-16T08:34:00.091Z,95.76
2024-01-16T08:35:00.130Z,97.34
2024-01-16T08:36:00.228Z,95.63
2024-01-16T08:37:00.194Z,100.07
2024-01-16T08:38:00.234Z,99.71
2024-01-16T08:39:00.346Z,98.83
2024-01-16T08:40:00.362Z,102.75
2024-01-16T08:41:00.457Z,103.54
2024-01-16T08:42:00.541Z,102.21
2024-01-16T08:43:00.543Z,99.61
2024-01-16T08:44:00.596Z,95.94
2024-01-16T08:45:01.744Z,93.13
2024-01-16T08:46:00.717Z,91.99
2024-01-16T08:47:00.989Z,93.82
2024-01-16T08:48:01.111Z,91.51
2024-01-16T08:49:00.973Z,85.42
2024-01-16T08:50:01.783Z,84.77
2024-01-16T08:51:02.629Z,87.50
2024-01-16T08:52:01.046Z,89.27
2024-01-16T08:53:01.139Z,83.77
2024-01-16T08:54:01.251Z,83.25
2024-01-16T08:55:01.636Z,90.13
2024-01-16T08:56:01.336Z,88.18
2024-01-16T08:57:01.359Z,84.20
2024-01-16T08:58:01.458Z,80.01
2024-01-16T08:59:01.592Z,81.59
2024-01-16T09:00:01.704Z,84.27
2024-01-16T09:01:01.678Z,86.94
2024-01-16T09:02:01.670Z,91.77
2024-01-16T09:03:04.925Z,90.64
2024-01-16T09:04:01.806Z,85.47
2024-01-16T09:05:02.284Z,83.92
2024-01-16T09:06:01.955Z,87.19
2024-01-16T09:07:02.816Z,89.88
2024-01-16T09:08:01.729Z,95.26
2024-01-16T09:09:01.818Z,94.66
2024-01-16T09:10:02.119Z,93.49
2024-01-16T09:11:01.794Z,93.61
2024-01-16T09:12:01.770Z,93.28
2024-01-16T09:13:01.764Z,93.47
2024-01-16T09:14:04.409Z,95.56
2024-01-16T09:15:02.222Z,95.29
2024-01-16T09:16:01.778Z,94.30
2024-01-16T09:17:01.788Z,96.49
2024-01-16T09:18:01.885Z,98.31
2024-01-16T09:19:01.878Z,95.12
2024-01-16T09:20:02.186Z,94.92
2024-01-16T09:21:01.879Z,97.43
2024-01-16T09:22:01.786Z,95.97
2024-01-16T09:23:01.836Z,98.22
2024-01-16T09:24:01.865Z,100.55
2024-01-16T09:25:02.190Z,97.52
2024-01-16T09:26:01.783Z,100.21
2024-01-16T09:27:01.802Z,98.32
2024-01-16T09:28:01.806Z,98.19
2024-01-16T09:29:01.788Z,99.18
2024-01-16T09:30:02.214Z,100.67
2024-01-16T09:31:01.820Z,101.32
2024-01-16T09:32:01.807Z,100.54
2024-01-16T09:33:01.904Z,101.73
2024-01-16T09:34:03.467Z,102.64
2024-01-16T09:35:02.175Z,105.51
2024-01-16T09:36:01.881Z,106.53
2024-01-16T09:37:01.823Z,103.78
2024-01-16T09:38:01.799Z,103.50
2024-01-16T09:39:01.847Z,104.22
2024-01-16T09:40:02.096Z,106.38
2024-01-16T09:41:01.872Z,105.09
2024-01-16T09:42:01.889Z,104.46
2024-01-16T09:43:01.807Z,98.09
2024-01-16T09:44:01.799Z,88.02
2024-01-16T09:45:02.149Z,91.95
2024-01-16T09:46:03.029Z,94.00
2024-01-16T09:47:02.626Z,96.74
2024-01-16T09:48:02.075Z,99.50
2024-01-16T09:49:01.907Z,96.37
2024-01-16T09:50:02.138Z,91.89
2024-01-16T09:51:01.842Z,95.67
2024-01-16T09:52:01.863Z,98.33
2024-01-16T09:53:01.892Z,97.93
2024-01-16T09:54:01.910Z,93.54
2024-01-16T09:55:02.131Z,95.72
2024-01-16T09:56:01.817Z,91.63
2024-01-16T09:57:02.042Z,90.77
2024-01-16T09:58:01.889Z,88.94
2024-01-16T09:59:01.919Z,95.65
2024-01-16T10:00:02.095Z,100.72
2024-01-16T10:01:02.125Z,104.99
2024-01-16T10:02:02.142Z,106.74
2024-01-16T10:03:02.497Z,106.18
2024-01-16T10:04:02.297Z,109.91
2024-01-16T10:05:02.663Z,110.44
2024-01-16T10:06:02.646Z,116.34
2024-01-16T10:07:02.537Z,117.82
2024-01-16T10:08:05.106Z,118.67
2024-01-16T10:09:02.614Z,118.06
2024-01-16T10:10:03.119Z,120.27
2024-01-16T10:11:02.507Z,119.81
2024-01-16T10:12:02.586Z,117.08
2024-01-16T10:13:02.581Z,117.71
2024-01-16T10:14:02.615Z,115.75
2024-01-16T10:15:02.703Z,118.59
2024-01-16T10:16:02.523Z,112.09
2024-01-16T10:17:02.518Z,110.67
2024-01-16T10:18:02.753Z,107.93
2024-01-16T10:19:02.610Z,107.86
2024-01-16T10:20:02.616Z,109.79
2024-01-16T10:21:02.701Z,110.03
2024-01-16T10:22:02.569Z,106.76
2024-01-16T10:23:02.566Z,105.81
2024-01-16T10:24:02.578Z,103.43
2024-01-16T10:25:02.513Z,102.70
2024-01-16T10:26:02.530Z,100.03
2024-01-16T10:27:02.651Z,99.06
2024-01-16T10:28:02.520Z,98.91
2024-01-16T10:29:02.554Z,98.53
2024-01-16T10:30:02.697Z,100.52
2024-01-16T10:31:02.810Z,105.49
2024-01-16T10:32:02.647Z,103.05
2024-01-16T10:33:02.640Z,103.63
2024-01-16T10:34:02.734Z,103.07
2024-01-16T10:35:02.736Z,101.63
2024-01-16T10:36:02.634Z,100.99
2024-01-16T10:37:02.553Z,102.48
2024-01-16T10:38:02.591Z,99.57
2024-01-16T10:39:02.595Z,93.85
2024-01-16T10:40:02.639Z,95.15
2024-01-16T10:41:02.591Z,95.23
2024-01-16T10:42:02.567Z,95.33
2024-01-16T10:43:02.662Z,96.64
2024-01-16T10:44:02.607Z,94.40
2024-01-16T10:45:02.647Z,95.46
2024-01-16T10:46:02.630Z,97.89
2024-01-16T10:47:02.596Z,96.11
2024-01-16T10:48:02.764Z,94.12
2024-01-16T10:49:02.661Z,96.27
2024-01-16T10:50:02.790Z,98.70
2024-01-16T10:51:02.615Z,99.87
2024-01-16T10:52:02.626Z,105.27
2024-01-16T10:53:02.587Z,112.49
2024-01-16T10:54:02.588Z,116.69
2024-01-16T10:55:02.648Z,120.13
2024-01-16T10:56:02.585Z,125.81
2024-01-16T10:57:02.646Z,131.44
2024-01-16T10:58:02.622Z,137.89
2024-01-16T10:59:02.616Z,138.74
2024-01-16T11:00:02.628Z,138.63
2024-01-16T11:01:02.678Z,142.84
2024-01-16T11:02:02.645Z,145.36
2024-01-16T11:03:02.683Z,145.59
2024-01-16T11:04:02.690Z,145.42
2024-01-16T11:05:02.637Z,144.80
2024-01-16T11:06:02.809Z,145.79
2024-01-16T11:07:02.615Z,144.32
2024-01-16T11:08:02.635Z,142.54
2024-01-16T11:09:04.298Z,144.57
2024-01-16T11:10:02.639Z,144.96
2024-01-16T11:11:02.647Z,146.53
2024-01-16T11:12:02.708Z,143.18
2024-01-16T11:13:02.644Z,140.45
2024-01-16T11:14:02.652Z,138.48
2024-01-16T11:15:03.129Z,136.80
2024-01-16T11:16:02.643Z,137.63
2024-01-16T11:17:02.627Z,135.16
2024-01-16T11:18:02.767Z,133.25
2024-01-16T11:20:14.365Z,132.34
2024-01-16T11:21:07.781Z,132.49
2024-01-16T11:22:03.822Z,132.47
2024-01-16T11:23:02.693Z,132.80
2024-01-16T11:24:02.725Z,131.21
2024-01-16T11:25:03.144Z,129.01
2024-01-16T11:26:02.719Z,122.40
2024-01-16T11:27:02.808Z,112.79
2024-01-16T11:28:02.708Z,108.71
2024-01-16T11:29:02.685Z,96.40
2024-01-16T11:30:02.806Z,92.65
2024-01-16T11:31:02.802Z,96.33
2024-01-16T11:33:02.841Z,85.36
2024-01-16T11:34:03.200Z,84.36
2024-01-16T11:35:02.903Z,83.50
2024-01-16T11:36:02.944Z,79.99
2024-01-16T11:37:02.746Z,75.03
2024-01-16T11:38:02.683Z,73.58
2024-01-16T11:39:02.796Z,79.72
2024-01-16T11:40:03.176Z,79.17
2024-01-16T11:41:02.761Z,74.17
2024-01-16T11:42:02.738Z,70.69
2024-01-16T11:43:02.789Z,72.71
2024-01-16T11:44:02.726Z,79.56
2024-01-16T11:45:02.792Z,84.57
2024-01-16T11:46:02.718Z,86.88
2024-01-16T11:47:02.763Z,90.64
2024-01-16T11:48:02.923Z,92.51
2024-01-16T11:49:02.944Z,93.67
2024-01-16T11:50:02.740Z,93.41
2024-01-16T11:51:02.834Z,94.98
2024-01-16T11:52:02.716Z,96.00
2024-01-16T11:53:02.736Z,95.11
2024-01-16T11:54:02.836Z,94.38
2024-01-16T11:55:02.745Z,91.70
2024-01-16T11:56:02.760Z,88.75
2024-01-16T11:57:02.780Z,87.87
2024-01-16T11:58:02.769Z,85.39
2024-01-16T11:59:02.730Z,85.62
2024-01-16T12:00:02.991Z,85.46
2024-01-16T12:01:02.854Z,85.83
2024-01-16T12:02:05.098Z,83.66
2024-01-16T12:03:02.795Z,86.11
2024-01-16T12:04:02.800Z,81.43
2024-01-16T12:05:02.802Z,82.99
2024-01-16T12:06:02.951Z,82.46
2024-01-16T12:07:02.892Z,81.62
2024-01-16T12:08:02.765Z,80.44
2024-01-16T12:09:02.824Z,77.00
2024-01-16T12:10:03.151Z,76.65
2024-01-16T12:11:02.771Z,76.24
2024-01-16T12:12:03.035Z,77.60
2024-01-16T12:13:05.323Z,76.73
2024-01-16T12:14:02.771Z,76.93
2024-01-16T12:15:02.810Z,76.99
2024-01-16T12:16:02.829Z,75.60
2024-01-16T12:17:02.794Z,74.90
2024-01-16T12:18:03.146Z,76.85
2024-01-16T12:19:02.843Z,78.50
2024-01-16T12:20:03.287Z,77.79
2024-01-16T12:21:03.708Z,79.17
2024-01-16T12:22:02.827Z,80.74
2024-01-16T12:23:02.821Z,78.90
2024-01-16T12:24:09.865Z,77.73
2024-01-16T12:25:03.827Z,77.90
2024-01-16T12:26:04.327Z,78.15
2024-01-16T12:27:02.810Z,79.06
2024-01-16T12:28:02.833Z,79.22
2024-01-16T12:29:02.895Z,81.08
2024-01-16T12:30:02.842Z,81.28
2024-01-16T12:31:03.163Z,82.14
2024-01-16T12:32:02.854Z,80.79
2024-01-16T12:33:10.870Z,80.72
2024-01-16T12:34:04.710Z,80.83
2024-01-16T12:35:03.300Z,81.00
2024-01-16T12:36:02.940Z,79.37
2024-01-16T12:37:02.924Z,81.09
2024-01-16T12:38:02.840Z,81.21
2024-01-16T12:39:02.837Z,78.79
2024-01-16T12:40:02.818Z,80.49
2024-01-16T12:41:04.183Z,78.04
2024-01-16T12:42:03.038Z,79.00
2024-01-16T12:43:03.041Z,79.32
2024-01-16T12:44:10.918Z,81.08